createdAt,value
2022-12-20T00:01:13.086Z,54.95
2022-12-20T00:03:14.595Z,44.85
2022-12-20T00:05:16.072Z,38.33
2022-12-20T00:07:17.506Z,44.10
2022-12-20T00:09:20.247Z,42.90
2022-12-20T00:11:21.816Z,36.95
2022-12-20T00:13:23.282Z,40.20
2022-12-20T00:15:24.754Z,42.83
2022-12-20T00:17:26.283Z,42.92
2022-12-20T00:19:27.729Z,44.88
2022-12-20T00:21:30.613Z,37.42
2022-12-20T00:23:32.555Z,38.97
2022-12-20T00:25:34.001Z,37.63
2022-12-20T00:27:35.538Z,39.85
2022-12-20T00:29:37.860Z,40.22
2022-12-20T00:31:39.925Z,38.72
2022-12-20T00:33:45.084Z,36.15
2022-12-20T00:35:46.669Z,38.90
2022-12-20T00:37:48.110Z,39.47
2022-12-20T00:39:49.658Z,40.33
2022-12-20T00:41:51.066Z,39.72
2022-12-20T00:43:52.949Z,39.10
2022-12-20T00:45:54.584Z,34.53
2022-12-20T00:47:55.989Z,33.72
2022-12-20T00:49:57.492Z,38.05
2022-12-20T00:51:59.180Z,38.10
2022-12-20T00:54:00.660Z,40.42
2022-12-20T00:56:03.455Z,37.30
2022-12-20T00:58:04.901Z,37.45
2022-12-20T01:00:07.176Z,41.38
2022-12-20T01:02:08.798Z,44.45
2022-12-20T01:04:10.492Z,35.58
2022-12-20T01:06:12.266Z,34.20
2022-12-20T01:08:13.699Z,32.55
2022-12-20T01:10:15.174Z,38.33
2022-12-20T01:12:17.136Z,40.30
2022-12-20T01:14:18.611Z,38.70
2022-12-20T01:16:25.964Z,39.33
2022-12-20T01:18:27.406Z,43.13
2022-12-20T01:20:28.867Z,39.47
2022-12-20T01:22:30.322Z,41.30
2022-12-20T01:24:31.744Z,42.60
2022-12-20T01:26:33.176Z,43.55
2022-12-20T01:28:36.205Z,41.28
2022-12-20T01:30:41.369Z,44.83
2022-12-20T01:32:42.834Z,41.97
2022-12-20T01:34:44.754Z,40.70
2022-12-20T01:36:46.213Z,40.72
2022-12-20T01:38:47.888Z,38.70
2022-12-20T01:40:49.340Z,48.00
2022-12-20T01:42:50.913Z,39.92
2022-12-20T01:44:58.284Z,45.92
2022-12-20T01:46:59.701Z,44.05
2022-12-20T01:49:17.444Z,38.13
2022-12-20T01:51:19.701Z,40.67
2022-12-20T01:53:23.363Z,40.40
2022-12-20T01:55:27.575Z,38.42
2022-12-20T01:57:38.014Z,35.95
2022-12-20T01:59:41.768Z,39.42
2022-12-20T02:01:44.792Z,41.85
2022-12-20T02:03:47.201Z,40.55
2022-12-20T02:05:48.703Z,43.28
2022-12-20T02:07:53.201Z,44.45
2022-12-20T02:09:57.204Z,43.10
2022-12-20T02:12:07.395Z,44.72
2022-12-20T02:14:19.796Z,41.20
2022-12-20T02:16:25.639Z,33.63
2022-12-20T02:18:42.623Z,40.35
2022-12-20T02:20:49.016Z,39.67
2022-12-20T02:23:17.257Z,40.58
2022-12-20T02:26:16.045Z,39.83
2022-12-20T02:28:48.193Z,39.80
2022-12-20T02:30:52.393Z,37.50
2022-12-20T02:33:03.872Z,38.10
2022-12-20T02:35:08.230Z,38.47
2022-12-20T02:37:11.031Z,49.75
2022-12-20T02:39:15.996Z,49.60
2022-12-20T02:41:35.415Z,41.08
2022-12-20T02:43:58.116Z,32.88
2022-12-20T02:46:01.654Z,38.75
2022-12-20T02:48:07.991Z,37.42
2022-12-20T02:50:10.776Z,36.38
2022-12-20T02:52:14.255Z,37.10
2022-12-20T02:54:16.468Z,33.35
2022-12-20T02:56:25.679Z,33.80
2022-12-20T02:58:33.924Z,35.25
2022-12-20T03:00:40.284Z,31.80
2022-12-20T03:03:02.920Z,32.92
2022-12-20T03:05:05.932Z,34.80
2022-12-20T03:07:08.901Z,33.17
2022-12-20T03:09:10.352Z,36.15
2022-12-20T03:11:11.772Z,37.53
2022-12-20T03:13:13.241Z,37.90
2022-12-20T03:15:14.738Z,38.97
2022-12-20T03:17:16.255Z,36.42
2022-12-20T03:19:17.766Z,37.72
2022-12-20T03:21:19.222Z,37.35
2022-12-20T03:23:22.084Z,40.22
2022-12-20T03:25:23.737Z,32.08
2022-12-20T03:27:27.320Z,34.20
2022-12-20T03:29:28.865Z,33.28
2022-12-20T03:31:30.541Z,35.55
2022-12-20T03:33:32.656Z,38.88
2022-12-20T03:35:34.114Z,36.78
2022-12-20T03:37:36.335Z,39.13
2022-12-20T03:39:37.767Z,38.42
2022-12-20T03:41:39.270Z,37.78
2022-12-20T03:43:40.685Z,44.03
2022-12-20T03:45:42.132Z,42.38
2022-12-20T03:47:43.621Z,45.47
2022-12-20T03:49:45.112Z,36.20
2022-12-20T03:51:46.728Z,45.88
2022-12-20T03:53:48.164Z,41.88
2022-12-20T03:55:49.608Z,41.50
2022-12-20T03:57:51.193Z,36.10
2022-12-20T03:59:54.220Z,37.90
2022-12-20T04:01:55.758Z,42.33
2022-12-20T04:03:57.461Z,40.80
2022-12-20T04:05:59.001Z,36.00
2022-12-20T04:08:00.489Z,43.45
2022-12-20T04:10:02.070Z,39.97
2022-12-20T04:12:03.664Z,38.90
2022-12-20T04:14:05.448Z,40.45
2022-12-20T04:16:08.051Z,45.78
2022-12-20T04:18:09.497Z,43.33
2022-12-20T04:20:20.693Z,50.40
2022-12-20T04:22:22.157Z,45.92
2022-12-20T04:24:23.735Z,48.75
2022-12-20T04:26:26.148Z,40.38
2022-12-20T04:28:28.657Z,42.65
2022-12-20T04:30:30.118Z,49.22
2022-12-20T04:32:31.580Z,39.47
2022-12-20T04:34:33.052Z,37.63
2022-12-20T04:36:34.847Z,39.03
2022-12-20T04:38:36.521Z,39.60
2022-12-20T04:40:37.972Z,36.25
2022-12-20T04:42:39.415Z,35.95
2022-12-20T04:44:40.886Z,31.83
2022-12-20T04:46:42.523Z,32.60
2022-12-20T04:48:57.083Z,33.10
2022-12-20T04:50:59.613Z,39.35
2022-12-20T04:53:36.583Z,41.50
2022-12-20T04:55:39.404Z,68.53
2022-12-20T04:57:40.833Z,61.00
2022-12-20T04:59:42.433Z,86.20
2022-12-20T05:01:44.008Z,120.45
2022-12-20T05:03:46.517Z,42.75
2022-12-20T05:05:48.359Z,37.25
2022-12-20T05:07:50.755Z,34.75
2022-12-20T05:09:52.281Z,38.97
2022-12-20T05:11:53.858Z,34.05
2022-12-20T05:13:55.316Z,33.70
2022-12-20T05:15:57.501Z,32.40
2022-12-20T05:18:00.378Z,38.65
2022-12-20T05:20:02.009Z,55.85
2022-12-20T05:22:21.906Z,51.90
2022-12-20T05:24:42.014Z,37.63
2022-12-20T05:26:43.481Z,35.40
2022-12-20T05:28:45.209Z,33.45
2022-12-20T05:30:46.639Z,35.22
2022-12-20T05:32:48.418Z,38.80
2022-12-20T05:34:49.875Z,29.88
2022-12-20T05:36:51.546Z,33.80
2022-12-20T05:38:55.519Z,36.63
2022-12-20T05:41:01.567Z,37.13
2022-12-20T05:43:03.642Z,32.88
2022-12-20T05:45:05.952Z,31.20
2022-12-20T05:47:07.435Z,31.77
2022-12-20T05:49:09.255Z,41.15
2022-12-20T05:51:10.730Z,31.70
2022-12-20T05:53:16.810Z,33.83
2022-12-20T05:55:18.302Z,30.25
2022-12-20T05:57:19.739Z,34.60
2022-12-20T05:59:21.282Z,33.60
2022-12-20T06:01:22.902Z,34.95
2022-12-20T06:03:24.504Z,34.03
2022-12-20T06:05:26.385Z,32.75
2022-12-20T06:07:31.748Z,38.47
2022-12-20T06:09:33.399Z,33.92
2022-12-20T06:11:34.872Z,33.53
2022-12-20T06:13:36.428Z,31.80
2022-12-20T06:15:38.612Z,31.92
2022-12-20T06:17:40.157Z,35.10
2022-12-20T06:19:41.786Z,33.42
2022-12-20T06:21:43.224Z,34.30
2022-12-20T06:23:44.692Z,32.25
2022-12-20T06:25:46.707Z,31.15
2022-12-20T06:27:48.155Z,30.08
2022-12-20T06:29:52.119Z,35.38
2022-12-20T06:31:53.656Z,38.75
2022-12-20T06:33:55.176Z,149.45
2022-12-20T06:35:56.683Z,111.25
2022-12-20T06:37:58.184Z,92.07
2022-12-20T06:40:00.271Z,56.75
2022-12-20T06:42:01.716Z,39.30
2022-12-20T06:44:03.668Z,54.95
2022-12-20T06:46:05.282Z,55.60
2022-12-20T06:48:06.889Z,51.47
2022-12-20T06:50:08.741Z,40.28
2022-12-20T06:52:10.272Z,43.80
2022-12-20T06:54:11.743Z,121.40
2022-12-20T06:56:13.229Z,43.90
2022-12-20T06:58:14.705Z,40.38
2022-12-20T07:00:16.932Z,38.67
2022-12-20T07:02:18.580Z,123.93
2022-12-20T07:04:20.154Z,136.35
2022-12-20T07:06:21.594Z,113.65
2022-12-20T07:08:24.350Z,89.25
2022-12-20T07:10:25.865Z,47.63
2022-12-20T07:12:27.365Z,38.15
2022-12-20T07:14:28.970Z,39.28
2022-12-20T07:16:32.337Z,76.57
2022-12-20T07:18:35.622Z,118.40
2022-12-20T07:20:37.543Z,87.43
2022-12-20T07:22:39.004Z,88.72
2022-12-20T07:24:40.486Z,80.10
2022-12-20T07:26:44.616Z,89.53
2022-12-20T07:28:46.081Z,88.85
2022-12-20T07:30:47.541Z,59.78
2022-12-20T07:32:49.033Z,61.15
2022-12-20T07:34:50.577Z,61.88
2022-12-20T07:36:52.027Z,54.38
2022-12-20T07:38:53.501Z,46.45
2022-12-20T07:40:54.954Z,74.70
2022-12-20T07:42:56.452Z,61.72
2022-12-20T07:44:57.964Z,48.53
2022-12-20T07:46:59.416Z,46.10
2022-12-20T07:49:00.846Z,39.20
2022-12-20T07:51:23.309Z,32.45
2022-12-20T07:53:26.603Z,38.20
2022-12-20T07:55:31.281Z,32.42
2022-12-20T07:57:57.431Z,29.75
2022-12-20T08:00:01.295Z,33.90
2022-12-20T08:02:05.138Z,27.75
2022-12-20T08:04:12.930Z,31.40
2022-12-20T08:06:16.032Z,31.77
2022-12-20T08:08:18.148Z,34.28
2022-12-20T08:10:19.770Z,32.17
2022-12-20T08:12:22.581Z,32.63
2022-12-20T08:14:24.397Z,36.13
2022-12-20T08:16:26.369Z,29.98
2022-12-20T08:18:27.850Z,33.55
2022-12-20T08:20:30.313Z,33.80
2022-12-20T08:22:31.984Z,39.95
2022-12-20T08:24:34.597Z,39.15
2022-12-20T08:26:42.535Z,54.45
2022-12-20T08:28:44.600Z,32.92
2022-12-20T08:30:46.737Z,32.78
2022-12-20T08:32:48.235Z,49.05
2022-12-20T08:34:49.682Z,42.17
2022-12-20T08:36:51.121Z,38.63
2022-12-20T08:38:52.545Z,36.47
2022-12-20T08:40:54.038Z,31.40
2022-12-20T08:42:55.485Z,33.08
2022-12-20T08:44:56.960Z,32.53
2022-12-20T08:46:58.434Z,34.63
2022-12-20T08:49:00.165Z,32.33
2022-12-20T08:51:08.002Z,40.80
2022-12-20T08:53:09.515Z,32.05
2022-12-20T08:55:13.029Z,32.55
2022-12-20T08:57:14.699Z,36.13
2022-12-20T08:59:16.263Z,45.67
2022-12-20T09:01:20.517Z,35.25
2022-12-20T09:03:22.170Z,35.17
2022-12-20T09:05:23.659Z,33.33
2022-12-20T09:07:25.117Z,33.10
2022-12-20T09:09:26.628Z,32.58
2022-12-20T09:11:28.469Z,34.97
2022-12-20T09:13:29.927Z,34.22
2022-12-20T09:15:31.941Z,30.80
2022-12-20T09:17:33.442Z,30.88
2022-12-20T09:19:34.951Z,31.05
2022-12-20T09:21:36.446Z,33.05
2022-12-20T09:23:38.218Z,34.03
2022-12-20T09:25:39.730Z,35.05
2022-12-20T09:27:41.250Z,48.53
2022-12-20T09:29:42.860Z,46.42
2022-12-20T09:31:44.388Z,42.45
2022-12-20T09:33:46.722Z,44.10
2022-12-20T09:35:48.273Z,44.00
2022-12-20T09:37:49.765Z,56.05
2022-12-20T09:39:51.678Z,51.47
2022-12-20T09:41:53.225Z,43.70
2022-12-20T09:43:56.125Z,53.45
2022-12-20T09:46:00.525Z,43.92
2022-12-20T09:48:02.166Z,41.58
2022-12-20T09:50:06.197Z,39.00
2022-12-20T09:52:30.687Z,38.63
2022-12-20T09:54:42.244Z,48.97
2022-12-20T09:57:07.772Z,41.95
2022-12-20T09:59:19.181Z,39.65
2022-12-20T10:01:25.214Z,38.53
2022-12-20T10:03:32.351Z,37.67
2022-12-20T10:05:44.083Z,36.17
2022-12-20T10:07:59.639Z,32.90
2022-12-20T10:10:39.938Z,33.42
2022-12-20T10:13:00.268Z,32.28
2022-12-20T10:15:07.739Z,33.17
2022-12-20T10:17:19.388Z,38.30
2022-12-20T10:19:29.807Z,36.15
2022-12-20T10:21:45.452Z,35.17
2022-12-20T10:24:01.588Z,37.88
2022-12-20T10:26:09.594Z,36.83
2022-12-20T10:28:15.400Z,48.05
2022-12-20T10:30:22.671Z,42.30
2022-12-20T10:32:24.599Z,43.72
2022-12-20T10:34:30.110Z,38.15
2022-12-20T10:36:37.143Z,51.90
2022-12-20T10:38:47.022Z,42.40
2022-12-20T10:41:20.041Z,36.85
2022-12-20T10:43:21.326Z,40.83
2022-12-20T10:45:22.754Z,45.42
2022-12-20T10:47:41.344Z,37.80
2022-12-20T10:49:42.787Z,41.30
2022-12-20T10:51:53.087Z,36.72
2022-12-20T10:53:58.572Z,37.95
2022-12-20T10:56:09.347Z,44.90
2022-12-20T10:58:17.016Z,47.80
2022-12-20T11:00:30.051Z,43.90
2022-12-20T11:02:42.049Z,33.97
2022-12-20T11:05:11.859Z,39.95
2022-12-20T11:07:26.892Z,41.58
2022-12-20T11:09:37.706Z,59.90
2022-12-20T11:11:39.408Z,55.80
2022-12-20T11:13:41.570Z,41.22
2022-12-20T11:15:49.876Z,38.28
2022-12-20T11:17:56.900Z,33.17
2022-12-20T11:20:20.375Z,40.45
2022-12-20T11:22:34.793Z,60.95
2022-12-20T11:25:13.075Z,34.03
2022-12-20T11:27:35.899Z,35.97
2022-12-20T11:29:58.603Z,36.70
2022-12-20T11:32:16.518Z,37.35
2022-12-20T11:34:42.110Z,39.55
2022-12-20T11:37:04.668Z,40.63
2022-12-20T11:39:08.904Z,37.30
2022-12-20T11:41:55.476Z,39.55
2022-12-20T11:44:25.228Z,39.08
2022-12-20T11:46:42.298Z,45.53
2022-12-20T11:49:17.622Z,40.72
2022-12-20T11:51:26.700Z,71.03
2022-12-20T11:53:39.863Z,42.55
2022-12-20T11:55:46.002Z,43.63
2022-12-20T11:58:21.088Z,46.95
2022-12-20T12:00:24.122Z,53.33
2022-12-20T12:02:43.743Z,53.10
2022-12-20T12:04:53.477Z,65.35
2022-12-20T12:07:14.102Z,61.20
2022-12-20T12:09:27.878Z,66.05
2022-12-20T12:12:05.168Z,51.47
2022-12-20T12:13:55.524Z,43.30
2022-12-20T12:16:42.109Z,47.03
2022-12-20T12:18:44.065Z,57.25
2022-12-20T12:20:54.949Z,48.13
2022-12-20T12:23:21.183Z,40.97
2022-12-20T12:25:22.740Z,36.97
2022-12-20T12:27:27.466Z,50.00
2022-12-20T12:29:30.341Z,45.42
2022-12-20T12:31:47.131Z,46.38
2022-12-20T12:34:12.705Z,49.45
2022-12-20T12:36:40.349Z,51.55
2022-12-20T12:39:02.192Z,45.70
2022-12-20T12:41:22.064Z,36.92
2022-12-20T12:43:51.607Z,32.10
2022-12-20T12:45:58.564Z,37.03
2022-12-20T12:48:07.402Z,33.58
2022-12-20T12:50:20.670Z,36.20
2022-12-20T12:52:50.933Z,39.45
2022-12-20T12:54:52.453Z,34.45
2022-12-20T12:57:02.457Z,41.40
2022-12-20T12:59:06.670Z,47.42
2022-12-20T13:01:12.677Z,38.80
2022-12-20T13:03:16.837Z,43.63
2022-12-20T13:05:26.005Z,43.67
2022-12-20T13:07:35.221Z,54.95
2022-12-20T13:09:39.084Z,50.37
2022-12-20T13:11:46.931Z,42.55
2022-12-20T13:13:49.522Z,37.30
2022-12-20T13:15:52.411Z,46.38
2022-12-20T13:17:58.831Z,49.08
2022-12-20T13:20:00.423Z,49.83
2022-12-20T13:22:17.036Z,46.25
2022-12-20T13:24:39.242Z,61.15
2022-12-20T13:26:51.959Z,83.25
2022-12-20T13:28:53.454Z,193.52
2022-12-20T13:30:57.890Z,341.65
2022-12-20T13:33:16.721Z,178.75
2022-12-20T13:35:28.047Z,207.87
2022-12-20T13:38:06.312Z,173.00
2022-12-20T13:40:21.445Z,196.88
2022-12-20T13:42:34.158Z,189.70
2022-12-20T13:44:41.427Z,121.00
2022-12-20T13:46:46.957Z,199.95
2022-12-20T13:48:54.625Z,144.50
2022-12-20T13:50:57.393Z,177.10
2022-12-20T13:52:59.519Z,226.52
2022-12-20T13:55:15.794Z,187.45
2022-12-20T13:57:21.702Z,191.10
2022-12-20T13:59:27.896Z,149.60
2022-12-20T14:01:31.261Z,168.68
2022-12-20T14:03:40.391Z,89.97
2022-12-20T14:05:42.099Z,114.00
2022-12-20T14:07:45.572Z,116.72
2022-12-20T14:09:54.675Z,165.45
2022-12-20T14:12:03.616Z,129.23
2022-12-20T14:14:05.141Z,124.47
2022-12-20T14:16:15.842Z,90.25
2022-12-20T14:18:24.831Z,87.55
2022-12-20T14:20:33.411Z,117.63
2022-12-20T14:22:36.235Z,71.15
2022-12-20T14:24:41.485Z,121.95
2022-12-20T14:26:48.032Z,88.35
2022-12-20T14:28:51.636Z,79.38
2022-12-20T14:30:53.589Z,82.47
2022-12-20T14:32:56.719Z,103.70
2022-12-20T14:34:58.464Z,73.13
2022-12-20T14:37:29.796Z,145.13
2022-12-20T14:39:36.081Z,151.38
2022-12-20T14:41:40.611Z,201.90
2022-12-20T14:43:42.116Z,263.30
2022-12-20T14:45:43.860Z,203.57
2022-12-20T14:48:12.495Z,90.43
2022-12-20T14:50:29.149Z,234.82
2022-12-20T14:52:35.538Z,141.80
2022-12-20T14:55:08.971Z,174.80
2022-12-20T14:57:40.868Z,102.78
2022-12-20T14:59:58.121Z,84.22
2022-12-20T15:02:33.195Z,72.72
2022-12-20T15:04:35.458Z,70.72
2022-12-20T15:06:44.283Z,55.75
2022-12-20T15:08:45.787Z,56.38
2022-12-20T15:10:51.722Z,71.13
2022-12-20T15:12:53.201Z,71.65
2022-12-20T15:14:55.129Z,95.25
2022-12-20T15:16:57.009Z,114.53
2022-12-20T15:19:01.749Z,81.78
2022-12-20T15:21:06.924Z,83.63
2022-12-20T15:23:20.342Z,96.35
2022-12-20T15:25:21.913Z,85.00
2022-12-20T15:27:24.529Z,100.22
2022-12-20T15:29:28.160Z,86.63
2022-12-20T15:31:33.666Z,198.55
2022-12-20T15:33:35.803Z,86.28
2022-12-20T15:35:37.348Z,140.63
2022-12-20T15:37:38.827Z,98.78
2022-12-20T15:39:40.737Z,108.22
2022-12-20T15:41:47.169Z,134.60
2022-12-20T15:43:52.465Z,346.88
2022-12-20T15:45:54.112Z,226.15
2022-12-20T15:47:55.582Z,82.97
2022-12-20T15:49:57.068Z,67.18
2022-12-20T15:51:58.841Z,68.68
2022-12-20T15:54:02.788Z,61.67
2022-12-20T15:56:04.529Z,72.30
2022-12-20T15:58:06.088Z,80.22
2022-12-20T16:00:08.492Z,95.43
2022-12-20T16:02:28.004Z,90.72
2022-12-20T16:06:32.356Z,72.90
2022-12-20T16:08:33.876Z,70.32
2022-12-20T16:10:35.523Z,69.78
2022-12-20T16:12:37.052Z,60.15
2022-12-20T16:14:39.134Z,64.00
2022-12-20T16:16:40.747Z,70.38
2022-12-20T16:18:42.341Z,54.97
2022-12-20T16:20:44.767Z,56.33
2022-12-20T16:22:46.244Z,59.13
2022-12-20T16:24:47.898Z,70.35
2022-12-20T16:26:49.451Z,60.90
2022-12-20T16:28:52.515Z,82.32
2022-12-20T16:30:54.119Z,92.32
2022-12-20T16:32:58.759Z,96.35
2022-12-20T16:35:00.354Z,87.97
2022-12-20T16:37:01.870Z,75.78
2022-12-20T16:39:03.468Z,71.47
2022-12-20T16:41:23.867Z,67.90
2022-12-20T16:43:25.747Z,71.00
2022-12-20T16:45:29.826Z,77.43
2022-12-20T16:47:31.404Z,74.88
2022-12-20T16:49:32.916Z,64.70
2022-12-20T16:51:39.810Z,66.57
2022-12-20T16:54:09.811Z,64.70
2022-12-20T16:56:02.756Z,64.13
2022-12-20T16:58:04.235Z,60.75
2022-12-20T17:00:06.946Z,60.95
2022-12-20T17:02:32.855Z,68.18
2022-12-20T17:04:34.955Z,83.75
2022-12-20T17:06:36.460Z,84.25
2022-12-20T17:10:58.957Z,91.55
2022-12-20T17:13:00.446Z,81.55
2022-12-20T17:15:02.024Z,101.20
2022-12-20T17:17:03.510Z,80.13
2022-12-20T17:19:05.236Z,99.43
2022-12-20T17:21:23.929Z,80.20
2022-12-20T17:23:43.762Z,77.27
2022-12-20T17:25:51.988Z,81.05
2022-12-20T17:27:55.633Z,68.40
2022-12-20T17:29:57.145Z,67.07
2022-12-20T17:31:58.742Z,74.35
2022-12-20T17:34:02.945Z,76.32
2022-12-20T17:36:04.689Z,87.68
2022-12-20T17:38:07.654Z,80.63
2022-12-20T17:40:12.538Z,80.97
2022-12-20T17:42:14.403Z,73.93
2022-12-20T17:44:24.267Z,136.27
2022-12-20T17:46:26.676Z,145.43
2022-12-20T17:48:33.276Z,156.90
2022-12-20T17:50:36.275Z,142.02
2022-12-20T17:52:37.798Z,123.05
2022-12-20T17:54:40.402Z,109.72
2022-12-20T17:56:42.045Z,63.75
2022-12-20T17:58:44.349Z,64.93
2022-12-20T18:00:45.914Z,76.95
2022-12-20T18:02:47.688Z,81.47
2022-12-20T18:04:49.541Z,107.90
2022-12-20T18:06:52.192Z,113.60
2022-12-20T18:08:55.428Z,107.75
2022-12-20T18:10:58.236Z,107.88
2022-12-20T18:12:59.816Z,120.78
2022-12-20T18:15:01.356Z,135.45
2022-12-20T18:17:03.109Z,107.00
2022-12-20T18:19:05.373Z,78.15
2022-12-20T18:21:10.603Z,111.35
2022-12-20T18:23:12.095Z,60.50
2022-12-20T18:25:13.987Z,87.10
2022-12-20T18:27:15.574Z,59.63
2022-12-20T18:29:17.047Z,67.50
2022-12-20T18:31:21.133Z,74.60
2022-12-20T18:33:22.636Z,72.40
2022-12-20T18:35:24.182Z,68.00
2022-12-20T18:37:25.898Z,73.28
2022-12-20T18:39:27.715Z,78.03
2022-12-20T18:41:30.960Z,72.13
2022-12-20T18:43:34.667Z,61.00
2022-12-20T18:45:36.216Z,58.20
2022-12-20T18:47:38.329Z,70.72
2022-12-20T18:49:39.908Z,65.07
2022-12-20T18:51:41.812Z,66.78
2022-12-20T18:53:45.639Z,58.75
2022-12-20T18:55:48.373Z,78.53
2022-12-20T18:57:49.880Z,86.00
2022-12-20T18:59:51.358Z,72.65
2022-12-20T19:01:52.945Z,67.47
2022-12-20T19:03:55.208Z,60.30
2022-12-20T19:05:58.921Z,75.22
2022-12-20T19:08:00.899Z,68.68
2022-12-20T19:10:02.429Z,75.75
2022-12-20T19:12:04.167Z,71.35
2022-12-20T19:14:05.905Z,69.40
2022-12-20T19:16:12.936Z,61.95
2022-12-20T19:18:14.784Z,70.03
2022-12-20T19:20:16.405Z,73.53
2022-12-20T19:22:17.906Z,67.75
2022-12-20T19:24:19.503Z,68.57
2022-12-20T19:26:22.870Z,73.53
2022-12-20T19:28:24.345Z,80.93
2022-12-20T19:30:25.828Z,74.32
2022-12-20T19:32:27.337Z,80.57
2022-12-20T19:34:28.910Z,88.90
2022-12-20T19:36:42.631Z,88.30
2022-12-20T19:38:46.159Z,92.47
2022-12-20T19:40:53.519Z,81.97
2022-12-20T19:42:55.714Z,85.53
2022-12-20T19:44:57.161Z,79.13
2022-12-20T19:47:06.346Z,74.57
2022-12-20T19:49:08.212Z,109.95
2022-12-20T19:51:12.632Z,116.40
2022-12-20T19:53:14.286Z,136.55
2022-12-20T19:55:15.837Z,158.65
2022-12-20T19:57:17.438Z,73.78
2022-12-20T19:59:19.053Z,76.05
2022-12-20T20:01:22.924Z,71.45
2022-12-20T20:03:24.826Z,71.05
2022-12-20T20:05:26.457Z,71.85
2022-12-20T20:07:27.975Z,68.20
2022-12-20T20:09:30.191Z,103.45
2022-12-20T20:11:31.669Z,86.20
2022-12-20T20:13:33.556Z,132.10
2022-12-20T20:15:35.389Z,74.88
2022-12-20T20:17:37.071Z,67.40
2022-12-20T20:19:38.635Z,73.90
2022-12-20T20:21:40.404Z,69.53
2022-12-20T20:23:42.377Z,66.03
2022-12-20T20:25:56.915Z,66.53
2022-12-20T20:27:58.450Z,63.80
2022-12-20T20:29:59.931Z,66.60
2022-12-20T20:32:01.445Z,64.95
2022-12-20T20:34:03.445Z,75.47
2022-12-20T20:36:05.948Z,75.75
2022-12-20T20:38:08.361Z,79.47
2022-12-20T20:40:10.619Z,73.95
2022-12-20T20:42:15.909Z,65.80
2022-12-20T20:44:19.914Z,63.45
2022-12-20T20:46:21.536Z,59.50
2022-12-20T20:48:23.096Z,69.07
2022-12-20T20:50:24.576Z,60.08
2022-12-20T20:52:26.093Z,63.72
2022-12-20T20:54:27.553Z,63.65
2022-12-20T20:56:29.048Z,62.15
2022-12-20T20:58:31.574Z,65.22
2022-12-20T21:00:35.030Z,71.18
2022-12-20T21:02:36.706Z,61.45
2022-12-20T21:04:38.292Z,60.50
2022-12-20T21:06:41.787Z,69.40
2022-12-20T21:08:43.710Z,77.72
2022-12-20T21:10:45.353Z,81.07
2022-12-20T21:12:47.114Z,84.50
2022-12-20T21:15:20.752Z,74.60
2022-12-20T21:17:11.091Z,63.28
2022-12-20T21:19:12.644Z,66.88
2022-12-20T21:21:14.152Z,69.10
2022-12-20T21:23:15.688Z,70.82
2022-12-20T21:25:17.327Z,64.80
2022-12-20T21:27:19.882Z,69.20
2022-12-20T21:29:21.960Z,80.05
2022-12-20T21:31:23.624Z,93.85
2022-12-20T21:33:25.297Z,83.78
2022-12-20T21:35:27.196Z,75.38
2022-12-20T21:37:31.878Z,85.13
2022-12-20T21:39:33.905Z,78.60
2022-12-20T21:41:35.416Z,72.13
2022-12-20T21:43:37.144Z,68.18
2022-12-20T21:45:38.613Z,69.85
2022-12-20T21:47:40.100Z,62.83
2022-12-20T21:49:41.735Z,51.63
2022-12-20T21:51:43.321Z,58.30
2022-12-20T21:53:50.134Z,53.38
2022-12-20T21:55:54.671Z,61.60
2022-12-20T21:57:56.176Z,66.63
2022-12-20T21:59:57.644Z,86.10
2022-12-20T22:01:59.903Z,94.55
2022-12-20T22:04:05.054Z,99.65
2022-12-20T22:06:06.858Z,94.38
2022-12-20T22:08:08.315Z,74.53
2022-12-20T22:10:10.116Z,63.70
2022-12-20T22:12:11.586Z,56.90
2022-12-20T22:14:13.744Z,59.90
2022-12-20T22:16:25.547Z,53.78
2022-12-20T22:18:27.175Z,56.72
2022-12-20T22:20:28.693Z,58.20
2022-12-20T22:22:30.858Z,57.00
2022-12-20T22:24:32.365Z,69.20
2022-12-20T22:26:33.900Z,60.92
2022-12-20T22:28:36.209Z,61.13
2022-12-20T22:30:41.429Z,71.00
2022-12-20T22:32:43.298Z,82.55
2022-12-20T22:34:45.029Z,72.82
2022-12-20T22:36:46.692Z,64.07
2022-12-20T22:38:50.353Z,56.92
2022-12-20T22:40:55.969Z,58.15
2022-12-20T22:42:57.469Z,52.75
2022-12-20T22:44:59.025Z,55.00
2022-12-20T22:47:00.486Z,67.22
2022-12-20T22:49:02.085Z,57.70
2022-12-20T22:51:06.400Z,55.97
2022-12-20T22:53:07.842Z,48.67
2022-12-20T22:55:09.791Z,54.35
2022-12-20T22:57:14.695Z,50.78
2022-12-20T22:59:16.274Z,47.92
2022-12-20T23:01:20.140Z,49.60
2022-12-20T23:03:21.792Z,49.88
2022-12-20T23:05:23.376Z,44.92
2022-12-20T23:07:24.843Z,50.70
2022-12-20T23:09:26.753Z,52.33
2022-12-20T23:11:48.106Z,53.78
2022-12-20T23:14:08.237Z,52.63
2022-12-20T23:16:12.072Z,46.00
2022-12-20T23:18:13.676Z,55.33
2022-12-20T23:20:34.030Z,48.83
2022-12-20T23:22:39.581Z,46.97
2022-12-20T23:24:41.099Z,44.42
2022-12-20T23:26:43.706Z,46.53
2022-12-20T23:28:45.198Z,50.97
2022-12-20T23:30:46.728Z,51.58
2022-12-20T23:32:49.036Z,50.08
2022-12-20T23:34:50.871Z,49.40
2022-12-20T23:36:52.364Z,53.17
2022-12-20T23:38:54.013Z,46.58
2022-12-20T23:40:55.502Z,49.05
2022-12-20T23:42:57.060Z,41.65
2022-12-20T23:44:58.563Z,42.40
2022-12-20T23:47:00.113Z,48.65
2022-12-20T23:49:01.603Z,38.53
2022-12-20T23:51:03.445Z,51.67
2022-12-20T23:53:04.912Z,45.88
2022-12-20T23:55:06.705Z,51.28
2022-12-20T23:57:08.309Z,52.03
2022-12-20T23:59:09.755Z,49.58
